sensor_id;sensor_type;location;lat;lon;timestamp;P1;durP1;ratioP1;P2;durP2;ratioP2
33902;SDS011;20194;50.950;5.346;2022-09-16T00:00:36;4.60;;;1.40;;
33902;SDS011;20194;50.950;5.346;2022-09-16T00:03:06;9.52;;;1.60;;
33902;SDS011;20194;50.950;5.346;2022-09-16T00:05:32;6.15;;;1.67;;
33902;SDS011;20194;50.950;5.346;2022-09-16T00:07:57;7.25;;;1.73;;
33902;SDS011;20194;50.950;5.346;2022-09-16T00:10:23;3.88;;;1.63;;
33902;SDS011;20194;50.950;5.346;2022-09-16T00:12:49;9.07;;;1.88;;
33902;SDS011;20194;50.950;5.346;2022-09-16T00:15:15;8.68;;;1.48;;
33902;SDS011;20194;50.950;5.346;2022-09-16T00:17:41;15.70;;;2.15;;
33902;SDS011;20194;50.950;5.346;2022-09-16T00:20:07;8.52;;;1.55;;
33902;SDS011;20194;50.950;5.346;2022-09-16T00:22:33;8.00;;;1.60;;
33902;SDS011;20194;50.950;5.346;2022-09-16T00:24:59;10.38;;;1.80;;
33902;SDS011;20194;50.950;5.346;2022-09-16T00:27:25;9.93;;;1.60;;
33902;SDS011;20194;50.950;5.346;2022-09-16T00:29:51;8.30;;;2.33;;
33902;SDS011;20194;50.950;5.346;2022-09-16T00:32:17;5.90;;;1.35;;
33902;SDS011;20194;50.950;5.346;2022-09-16T00:34:43;8.77;;;1.98;;
33902;SDS011;20194;50.950;5.346;2022-09-16T00:37:08;6.57;;;1.60;;
33902;SDS011;20194;50.950;5.346;2022-09-16T00:39:35;5.00;;;1.67;;
33902;SDS011;20194;50.950;5.346;2022-09-16T00:42:01;3.50;;;1.98;;
33902;SDS011;20194;50.950;5.346;2022-09-16T00:47:22;11.63;;;1.90;;
33902;SDS011;20194;50.950;5.346;2022-09-16T00:50:16;7.50;;;1.35;;
33902;SDS011;20194;50.950;5.346;2022-09-16T00:52:45;5.53;;;1.50;;
33902;SDS011;20194;50.950;5.346;2022-09-16T00:55:14;8.48;;;2.13;;
33902;SDS011;20194;50.950;5.346;2022-09-16T00:57:43;12.48;;;1.98;;
33902;SDS011;20194;50.950;5.346;2022-09-16T01:00:10;6.60;;;1.52;;
33902;SDS011;20194;50.950;5.346;2022-09-16T01:02:38;7.82;;;1.80;;
33902;SDS011;20194;50.950;5.346;2022-09-16T01:05:09;5.97;;;2.05;;
33902;SDS011;20194;50.950;5.346;2022-09-16T01:07:48;8.10;;;1.73;;
33902;SDS011;20194;50.950;5.346;2022-09-16T01:10:17;7.72;;;1.90;;
33902;SDS011;20194;50.950;5.346;2022-09-16T01:12:49;12.05;;;2.13;;
33902;SDS011;20194;50.950;5.346;2022-09-16T01:15:17;9.23;;;1.85;;
33902;SDS011;20194;50.950;5.346;2022-09-16T01:17:53;5.72;;;1.55;;
33902;SDS011;20194;50.950;5.346;2022-09-16T01:24:08;9.55;;;1.73;;
33902;SDS011;20194;50.950;5.346;2022-09-16T01:30:13;11.70;;;1.80;;
33902;SDS011;20194;50.950;5.346;2022-09-16T01:36:05;6.30;;;2.00;;
33902;SDS011;20194;50.950;5.346;2022-09-16T01:38:54;11.77;;;1.70;;
33902;SDS011;20194;50.950;5.346;2022-09-16T01:44:29;7.60;;;1.60;;
33902;SDS011;20194;50.950;5.346;2022-09-16T01:50:02;13.45;;;2.08;;
33902;SDS011;20194;50.950;5.346;2022-09-16T01:55:29;6.63;;;1.60;;
33902;SDS011;20194;50.950;5.346;2022-09-16T01:58:08;7.88;;;1.83;;
33902;SDS011;20194;50.950;5.346;2022-09-16T02:00:40;10.45;;;1.88;;
33902;SDS011;20194;50.950;5.346;2022-09-16T02:03:10;7.22;;;2.47;;
33902;SDS011;20194;50.950;5.346;2022-09-16T02:05:41;6.07;;;1.40;;
33902;SDS011;20194;50.950;5.346;2022-09-16T02:08:21;10.93;;;1.45;;
33902;SDS011;20194;50.950;5.346;2022-09-16T02:10:55;7.13;;;1.95;;
33902;SDS011;20194;50.950;5.346;2022-09-16T02:13:32;3.38;;;1.40;;
33902;SDS011;20194;50.950;5.346;2022-09-16T02:16:07;8.02;;;1.50;;
33902;SDS011;20194;50.950;5.346;2022-09-16T02:18:39;5.13;;;1.50;;
33902;SDS011;20194;50.950;5.346;2022-09-16T02:21:07;6.72;;;1.45;;
33902;SDS011;20194;50.950;5.346;2022-09-16T02:23:44;15.52;;;1.90;;
33902;SDS011;20194;50.950;5.346;2022-09-16T02:26:13;4.78;;;1.40;;
33902;SDS011;20194;50.950;5.346;2022-09-16T02:28:43;8.90;;;1.40;;
33902;SDS011;20194;50.950;5.346;2022-09-16T02:31:11;9.45;;;2.03;;
33902;SDS011;20194;50.950;5.346;2022-09-16T02:33:43;23.58;;;1.73;;
33902;SDS011;20194;50.950;5.346;2022-09-16T02:36:13;4.40;;;1.13;;
33902;SDS011;20194;50.950;5.346;2022-09-16T02:38:44;9.63;;;1.27;;
33902;SDS011;20194;50.950;5.346;2022-09-16T02:41:14;4.03;;;1.20;;
33902;SDS011;20194;50.950;5.346;2022-09-16T02:43:40;7.15;;;1.45;;
33902;SDS011;20194;50.950;5.346;2022-09-16T02:46:08;9.65;;;1.58;;
33902;SDS011;20194;50.950;5.346;2022-09-16T02:51:45;7.28;;;1.23;;
33902;SDS011;20194;50.950;5.346;2022-09-16T02:54:23;5.82;;;1.35;;
33902;SDS011;20194;50.950;5.346;2022-09-16T02:57:00;9.48;;;1.15;;
33902;SDS011;20194;50.950;5.346;2022-09-16T02:59:26;6.53;;;1.50;;
33902;SDS011;20194;50.950;5.346;2022-09-16T03:01:52;8.35;;;1.50;;
33902;SDS011;20194;50.950;5.346;2022-09-16T03:04:18;7.63;;;1.50;;
33902;SDS011;20194;50.950;5.346;2022-09-16T03:06:45;7.03;;;1.50;;
33902;SDS011;20194;50.950;5.346;2022-09-16T03:09:13;8.27;;;1.60;;
33902;SDS011;20194;50.950;5.346;2022-09-16T03:22:50;7.93;;;1.42;;
33902;SDS011;20194;50.950;5.346;2022-09-16T03:28:14;6.75;;;1.40;;
33902;SDS011;20194;50.950;5.346;2022-09-16T03:30:52;6.25;;;1.52;;
33902;SDS011;20194;50.950;5.346;2022-09-16T03:33:34;3.08;;;1.48;;
33902;SDS011;20194;50.950;5.346;2022-09-16T03:36:05;10.65;;;1.95;;
33902;SDS011;20194;50.950;5.346;2022-09-16T03:38:35;9.55;;;1.60;;
33902;SDS011;20194;50.950;5.346;2022-09-16T03:41:02;10.88;;;1.65;;
33902;SDS011;20194;50.950;5.346;2022-09-16T03:43:30;6.47;;;1.10;;
33902;SDS011;20194;50.950;5.346;2022-09-16T03:45:55;6.43;;;1.40;;
33902;SDS011;20194;50.950;5.346;2022-09-16T03:48:22;6.35;;;1.55;;
33902;SDS011;20194;50.950;5.346;2022-09-16T03:50:47;4.95;;;1.10;;
33902;SDS011;20194;50.950;5.346;2022-09-16T03:53:13;6.90;;;2.10;;
33902;SDS011;20194;50.950;5.346;2022-09-16T03:55:39;7.78;;;1.30;;
33902;SDS011;20194;50.950;5.346;2022-09-16T03:58:04;7.93;;;1.30;;
33902;SDS011;20194;50.950;5.346;2022-09-16T04:00:30;4.18;;;1.40;;
33902;SDS011;20194;50.950;5.346;2022-09-16T04:02:57;4.55;;;1.23;;
33902;SDS011;20194;50.950;5.346;2022-09-16T04:05:24;10.52;;;1.55;;
33902;SDS011;20194;50.950;5.346;2022-09-16T04:07:50;5.60;;;1.40;;
33902;SDS011;20194;50.950;5.346;2022-09-16T04:10:16;5.03;;;1.55;;
33902;SDS011;20194;50.950;5.346;2022-09-16T04:12:42;10.15;;;1.40;;
33902;SDS011;20194;50.950;5.346;2022-09-16T04:15:08;4.53;;;1.08;;
33902;SDS011;20194;50.950;5.346;2022-09-16T04:17:33;11.27;;;1.55;;
33902;SDS011;20194;50.950;5.346;2022-09-16T04:19:59;10.68;;;1.70;;
33902;SDS011;20194;50.950;5.346;2022-09-16T04:22:29;7.22;;;1.52;;
33902;SDS011;20194;50.950;5.346;2022-09-16T04:24:55;7.57;;;1.23;;
33902;SDS011;20194;50.950;5.346;2022-09-16T04:27:22;16.17;;;1.38;;
33902;SDS011;20194;50.950;5.346;2022-09-16T04:29:48;4.00;;;1.10;;
33902;SDS011;20194;50.950;5.346;2022-09-16T04:32:14;10.55;;;1.40;;
33902;SDS011;20194;50.950;5.346;2022-09-16T04:34:39;11.90;;;1.48;;
33902;SDS011;20194;50.950;5.346;2022-09-16T04:37:05;11.38;;;1.35;;
33902;SDS011;20194;50.950;5.346;2022-09-16T04:39:32;12.32;;;1.63;;
33902;SDS011;20194;50.950;5.346;2022-09-16T04:41:57;6.18;;;1.13;;
33902;SDS011;20194;50.950;5.346;2022-09-16T04:44:25;5.78;;;1.63;;
33902;SDS011;20194;50.950;5.346;2022-09-16T04:46:51;8.43;;;2.03;;
33902;SDS011;20194;50.950;5.346;2022-09-16T04:49:17;9.13;;;1.73;;
33902;SDS011;20194;50.950;5.346;2022-09-16T04:51:42;5.80;;;1.40;;
33902;SDS011;20194;50.950;5.346;2022-09-16T04:54:08;8.55;;;1.42;;
33902;SDS011;20194;50.950;5.346;2022-09-16T04:56:35;3.85;;;0.90;;
33902;SDS011;20194;50.950;5.346;2022-09-16T04:59:02;4.97;;;1.42;;
33902;SDS011;20194;50.950;5.346;2022-09-16T05:01:29;5.90;;;1.80;;
33902;SDS011;20194;50.950;5.346;2022-09-16T05:03:58;5.13;;;1.50;;
33902;SDS011;20194;50.950;5.346;2022-09-16T05:06:29;4.18;;;1.05;;
33902;SDS011;20194;50.950;5.346;2022-09-16T05:08:56;9.02;;;1.63;;
33902;SDS011;20194;50.950;5.346;2022-09-16T05:11:34;6.38;;;1.25;;
33902;SDS011;20194;50.950;5.346;2022-09-16T05:14:02;7.90;;;1.60;;
33902;SDS011;20194;50.950;5.346;2022-09-16T05:16:30;4.63;;;1.15;;
33902;SDS011;20194;50.950;5.346;2022-09-16T05:18:57;7.30;;;1.30;;
33902;SDS011;20194;50.950;5.346;2022-09-16T05:21:24;6.65;;;1.20;;
33902;SDS011;20194;50.950;5.346;2022-09-16T05:23:51;11.63;;;2.00;;
33902;SDS011;20194;50.950;5.346;2022-09-16T05:26:21;7.15;;;1.77;;
33902;SDS011;20194;50.950;5.346;2022-09-16T05:28:48;8.82;;;1.40;;
33902;SDS011;20194;50.950;5.346;2022-09-16T05:36:21;6.97;;;1.58;;
33902;SDS011;20194;50.950;5.346;2022-09-16T05:38:47;9.10;;;1.58;;
33902;SDS011;20194;50.950;5.346;2022-09-16T05:41:14;13.48;;;1.73;;
33902;SDS011;20194;50.950;5.346;2022-09-16T05:43:39;6.72;;;1.33;;
33902;SDS011;20194;50.950;5.346;2022-09-16T05:46:05;10.13;;;1.20;;
33902;SDS011;20194;50.950;5.346;2022-09-16T05:48:32;7.38;;;1.20;;
33902;SDS011;20194;50.950;5.346;2022-09-16T05:51:05;12.40;;;1.27;;
33902;SDS011;20194;50.950;5.346;2022-09-16T05:53:32;3.83;;;1.30;;
33902;SDS011;20194;50.950;5.346;2022-09-16T05:58:26;4.47;;;1.20;;
33902;SDS011;20194;50.950;5.346;2022-09-16T06:03:30;8.93;;;1.40;;
33902;SDS011;20194;50.950;5.346;2022-09-16T06:06:03;8.55;;;1.48;;
33902;SDS011;20194;50.950;5.346;2022-09-16T06:08:37;9.35;;;1.50;;
33902;SDS011;20194;50.950;5.346;2022-09-16T06:11:04;5.32;;;1.10;;
33902;SDS011;20194;50.950;5.346;2022-09-16T06:13:31;9.75;;;1.42;;
33902;SDS011;20194;50.950;5.346;2022-09-16T06:15:57;2.53;;;1.40;;
33902;SDS011;20194;50.950;5.346;2022-09-16T06:18:24;6.32;;;1.40;;
33902;SDS011;20194;50.950;5.346;2022-09-16T06:20:51;5.70;;;1.02;;
33902;SDS011;20194;50.950;5.346;2022-09-16T06:23:17;7.43;;;1.52;;
33902;SDS011;20194;50.950;5.346;2022-09-16T06:25:44;6.03;;;1.40;;
33902;SDS011;20194;50.950;5.346;2022-09-16T06:28:10;9.43;;;1.73;;
33902;SDS011;20194;50.950;5.346;2022-09-16T06:30:39;5.03;;;1.10;;
33902;SDS011;20194;50.950;5.346;2022-09-16T06:33:05;8.02;;;1.60;;
33902;SDS011;20194;50.950;5.346;2022-09-16T06:35:32;4.90;;;1.17;;
33902;SDS011;20194;50.950;5.346;2022-09-16T06:37:59;9.50;;;1.45;;
33902;SDS011;20194;50.950;5.346;2022-09-16T06:40:25;2.63;;;1.08;;
33902;SDS011;20194;50.950;5.346;2022-09-16T06:42:52;6.45;;;1.23;;
33902;SDS011;20194;50.950;5.346;2022-09-16T06:45:18;4.95;;;1.20;;
33902;SDS011;20194;50.950;5.346;2022-09-16T06:47:45;6.90;;;1.50;;
33902;SDS011;20194;50.950;5.346;2022-09-16T06:50:10;6.40;;;1.65;;
33902;SDS011;20194;50.950;5.346;2022-09-16T06:52:36;6.50;;;1.17;;
33902;SDS011;20194;50.950;5.346;2022-09-16T06:55:02;4.55;;;1.33;;
33902;SDS011;20194;50.950;5.346;2022-09-16T06:57:28;6.78;;;1.15;;
33902;SDS011;20194;50.950;5.346;2022-09-16T06:59:54;6.65;;;1.33;;
33902;SDS011;20194;50.950;5.346;2022-09-16T07:02:20;4.93;;;1.40;;
33902;SDS011;20194;50.950;5.346;2022-09-16T07:04:46;8.10;;;1.13;;
33902;SDS011;20194;50.950;5.346;2022-09-16T07:07:12;5.32;;;1.20;;
33902;SDS011;20194;50.950;5.346;2022-09-16T07:09:38;4.88;;;1.15;;
33902;SDS011;20194;50.950;5.346;2022-09-16T07:12:04;7.25;;;1.13;;
33902;SDS011;20194;50.950;5.346;2022-09-16T07:14:30;7.28;;;1.38;;
33902;SDS011;20194;50.950;5.346;2022-09-16T07:16:59;7.20;;;1.13;;
33902;SDS011;20194;50.950;5.346;2022-09-16T07:19:26;8.70;;;1.15;;
33902;SDS011;20194;50.950;5.346;2022-09-16T07:21:52;4.75;;;1.20;;
33902;SDS011;20194;50.950;5.346;2022-09-16T07:24:18;8.38;;;1.60;;
33902;SDS011;20194;50.950;5.346;2022-09-16T07:26:44;7.70;;;1.40;;
33902;SDS011;20194;50.950;5.346;2022-09-16T07:29:13;6.63;;;1.02;;
33902;SDS011;20194;50.950;5.346;2022-09-16T07:31:40;5.30;;;1.40;;
33902;SDS011;20194;50.950;5.346;2022-09-16T07:34:06;4.53;;;1.02;;
33902;SDS011;20194;50.950;5.346;2022-09-16T07:36:36;3.28;;;0.88;;
33902;SDS011;20194;50.950;5.346;2022-09-16T07:39:07;5.50;;;1.25;;
33902;SDS011;20194;50.950;5.346;2022-09-16T07:41:35;5.43;;;0.93;;
33902;SDS011;20194;50.950;5.346;2022-09-16T07:44:02;8.07;;;0.90;;
33902;SDS011;20194;50.950;5.346;2022-09-16T07:46:31;2.95;;;1.10;;
33902;SDS011;20194;50.950;5.346;2022-09-16T07:48:59;8.43;;;1.08;;
33902;SDS011;20194;50.950;5.346;2022-09-16T07:51:26;2.47;;;0.75;;
33902;SDS011;20194;50.950;5.346;2022-09-16T07:53:53;5.72;;;1.15;;
33902;SDS011;20194;50.950;5.346;2022-09-16T07:56:23;4.57;;;0.82;;
33902;SDS011;20194;50.950;5.346;2022-09-16T07:58:51;5.18;;;1.05;;
33902;SDS011;20194;50.950;5.346;2022-09-16T08:01:18;4.35;;;1.05;;
33902;SDS011;20194;50.950;5.346;2022-09-16T08:03:44;5.03;;;1.00;;
33902;SDS011;20194;50.950;5.346;2022-09-16T08:06:14;7.25;;;1.30;;
33902;SDS011;20194;50.950;5.346;2022-09-16T08:08:42;5.15;;;1.13;;
33902;SDS011;20194;50.950;5.346;2022-09-16T08:11:09;4.40;;;1.00;;
33902;SDS011;20194;50.950;5.346;2022-09-16T08:13:36;6.22;;;1.20;;
33902;SDS011;20194;50.950;5.346;2022-09-16T08:16:20;8.85;;;1.58;;
33902;SDS011;20194;50.950;5.346;2022-09-16T08:18:47;6.75;;;0.95;;
33902;SDS011;20194;50.950;5.346;2022-09-16T08:21:17;8.95;;;0.95;;
33902;SDS011;20194;50.950;5.346;2022-09-16T08:23:47;4.43;;;1.10;;
33902;SDS011;20194;50.950;5.346;2022-09-16T08:26:14;6.05;;;0.90;;
33902;SDS011;20194;50.950;5.346;2022-09-16T08:28:42;3.78;;;1.02;;
33902;SDS011;20194;50.950;5.346;2022-09-16T08:31:09;1.30;;;0.60;;
33902;SDS011;20194;50.950;5.346;2022-09-16T08:33:37;5.35;;;0.80;;
33902;SDS011;20194;50.950;5.346;2022-09-16T08:38:32;5.85;;;0.88;;
33902;SDS011;20194;50.950;5.346;2022-09-16T08:42:03;5.75;;;0.88;;
33902;SDS011;20194;50.950;5.346;2022-09-16T08:46:41;1.05;;;0.80;;
33902;SDS011;20194;50.950;5.346;2022-09-16T08:51:59;2.38;;;0.98;;
33902;SDS011;20194;50.950;5.346;2022-09-16T08:57:03;8.23;;;1.77;;
33902;SDS011;20194;50.950;5.346;2022-09-16T08:59:33;5.75;;;0.60;;
33902;SDS011;20194;50.950;5.346;2022-09-16T09:02:15;2.50;;;1.00;;
33902;SDS011;20194;50.950;5.346;2022-09-16T09:05:00;3.45;;;0.93;;
33902;SDS011;20194;50.950;5.346;2022-09-16T09:12:52;3.05;;;0.65;;
33902;SDS011;20194;50.950;5.346;2022-09-16T09:15:52;5.97;;;1.00;;
33902;SDS011;20194;50.950;5.346;2022-09-16T09:42:34;5.65;;;1.20;;
33902;SDS011;20194;50.950;5.346;2022-09-16T09:48:01;4.38;;;1.00;;
33902;SDS011;20194;50.950;5.346;2022-09-16T09:50:45;6.28;;;1.13;;
33902;SDS011;20194;50.950;5.346;2022-09-16T09:59:02;6.05;;;0.85;;
33902;SDS011;20194;50.950;5.346;2022-09-16T10:01:29;7.13;;;1.20;;
33902;SDS011;20194;50.950;5.346;2022-09-16T10:03:55;9.77;;;0.98;;
33902;SDS011;20194;50.950;5.346;2022-09-16T10:06:28;2.17;;;0.77;;
33902;SDS011;20194;50.950;5.346;2022-09-16T10:08:57;3.38;;;1.15;;
33902;SDS011;20194;50.950;5.346;2022-09-16T10:11:27;4.18;;;1.05;;
33902;SDS011;20194;50.950;5.346;2022-09-16T10:13:58;6.38;;;1.15;;
33902;SDS011;20194;50.950;5.346;2022-09-16T10:16:26;6.18;;;1.23;;
33902;SDS011;20194;50.950;5.346;2022-09-16T10:19:05;5.70;;;1.43;;
33902;SDS011;20194;50.950;5.346;2022-09-16T10:21:41;7.85;;;1.20;;
33902;SDS011;20194;50.950;5.346;2022-09-16T10:24:44;6.63;;;1.80;;
33902;SDS011;20194;50.950;5.346;2022-09-16T10:35:27;4.95;;;1.42;;
33902;SDS011;20194;50.950;5.346;2022-09-16T10:37:55;4.72;;;1.23;;
33902;SDS011;20194;50.950;5.346;2022-09-16T10:40:26;4.13;;;0.95;;
33902;SDS011;20194;50.950;5.346;2022-09-16T10:42:53;4.65;;;1.50;;
33902;SDS011;20194;50.950;5.346;2022-09-16T10:45:26;6.15;;;1.35;;
33902;SDS011;20194;50.950;5.346;2022-09-16T10:47:58;3.17;;;1.00;;
33902;SDS011;20194;50.950;5.346;2022-09-16T10:50:25;5.05;;;1.00;;
33902;SDS011;20194;50.950;5.346;2022-09-16T10:52:52;9.90;;;1.10;;
33902;SDS011;20194;50.950;5.346;2022-09-16T10:57:46;6.22;;;1.27;;
33902;SDS011;20194;50.950;5.346;2022-09-16T11:00:14;4.60;;;1.40;;
33902;SDS011;20194;50.950;5.346;2022-09-16T11:11:02;4.78;;;1.10;;
33902;SDS011;20194;50.950;5.346;2022-09-16T11:29:37;3.85;;;0.88;;
33902;SDS011;20194;50.950;5.346;2022-09-16T11:32:18;2.55;;;0.93;;
33902;SDS011;20194;50.950;5.346;2022-09-16T11:37:42;3.15;;;0.80;;
33902;SDS011;20194;50.950;5.346;2022-09-16T11:56:49;2.22;;;0.60;;
33902;SDS011;20194;50.950;5.346;2022-09-16T11:59:34;1.58;;;0.50;;
33902;SDS011;20194;50.950;5.346;2022-09-16T12:02:24;2.95;;;0.50;;
33902;SDS011;20194;50.950;5.346;2022-09-16T12:13:45;3.17;;;0.75;;
33902;SDS011;20194;50.950;5.346;2022-09-16T12:16:15;4.38;;;0.75;;
33902;SDS011;20194;50.950;5.346;2022-09-16T12:18:47;4.82;;;0.73;;
33902;SDS011;20194;50.950;5.346;2022-09-16T12:21:24;2.50;;;0.70;;
33902;SDS011;20194;50.950;5.346;2022-09-16T12:24:03;5.35;;;0.82;;
33902;SDS011;20194;50.950;5.346;2022-09-16T12:26:37;2.63;;;0.60;;
33902;SDS011;20194;50.950;5.346;2022-09-16T12:29:15;4.93;;;1.02;;
33902;SDS011;20194;50.950;5.346;2022-09-16T12:31:47;2.88;;;0.70;;
33902;SDS011;20194;50.950;5.346;2022-09-16T12:34:25;5.18;;;0.70;;
33902;SDS011;20194;50.950;5.346;2022-09-16T12:37:38;4.82;;;0.68;;
33902;SDS011;20194;50.950;5.346;2022-09-16T12:39:50;4.15;;;1.63;;
33902;SDS011;20194;50.950;5.346;2022-09-16T12:55:57;4.35;;;0.60;;
33902;SDS011;20194;50.950;5.346;2022-09-16T13:03:38;5.40;;;1.10;;
33902;SDS011;20194;50.950;5.346;2022-09-16T13:06:43;2.40;;;0.95;;
33902;SDS011;20194;50.950;5.346;2022-09-16T13:12:03;4.60;;;1.00;;
33902;SDS011;20194;50.950;5.346;2022-09-16T13:14:48;4.15;;;1.00;;
33902;SDS011;20194;50.950;5.346;2022-09-16T13:17:26;8.32;;;0.80;;
33902;SDS011;20194;50.950;5.346;2022-09-16T13:22:42;5.13;;;0.98;;
33902;SDS011;20194;50.950;5.346;2022-09-16T13:25:21;3.47;;;0.80;;
33902;SDS011;20194;50.950;5.346;2022-09-16T13:27:57;6.90;;;1.00;;
33902;SDS011;20194;50.950;5.346;2022-09-16T13:30:29;5.03;;;0.60;;
33902;SDS011;20194;50.950;5.346;2022-09-16T13:33:01;1.95;;;1.02;;
33902;SDS011;20194;50.950;5.346;2022-09-16T13:35:46;5.22;;;0.70;;
33902;SDS011;20194;50.950;5.346;2022-09-16T13:40:51;2.22;;;0.65;;
33902;SDS011;20194;50.950;5.346;2022-09-16T13:46:09;2.63;;;0.47;;
33902;SDS011;20194;50.950;5.346;2022-09-16T13:51:27;5.07;;;0.73;;
33902;SDS011;20194;50.950;5.346;2022-09-16T13:53:54;0.95;;;0.50;;
33902;SDS011;20194;50.950;5.346;2022-09-16T13:56:44;0.85;;;0.38;;
33902;SDS011;20194;50.950;5.346;2022-09-16T14:02:45;4.30;;;0.82;;
33902;SDS011;20194;50.950;5.346;2022-09-16T14:10:44;1.17;;;0.40;;
33902;SDS011;20194;50.950;5.346;2022-09-16T14:13:18;2.67;;;0.70;;
33902;SDS011;20194;50.950;5.346;2022-09-16T14:15:49;3.05;;;0.60;;
33902;SDS011;20194;50.950;5.346;2022-09-16T14:18:21;3.22;;;0.60;;
33902;SDS011;20194;50.950;5.346;2022-09-16T14:20:50;2.22;;;0.50;;
33902;SDS011;20194;50.950;5.346;2022-09-16T14:23:28;3.35;;;0.55;;
33902;SDS011;20194;50.950;5.346;2022-09-16T14:25:55;1.75;;;0.82;;
33902;SDS011;20194;50.950;5.346;2022-09-16T14:30:57;2.10;;;0.60;;
33902;SDS011;20194;50.950;5.346;2022-09-16T14:33:29;2.80;;;0.82;;
33902;SDS011;20194;50.950;5.346;2022-09-16T14:36:09;3.40;;;0.50;;
33902;SDS011;20194;50.950;5.346;2022-09-16T14:39:01;1.60;;;0.47;;
33902;SDS011;20194;50.950;5.346;2022-09-16T14:41:35;2.35;;;0.63;;
33902;SDS011;20194;50.950;5.346;2022-09-16T14:44:08;2.17;;;0.50;;
33902;SDS011;20194;50.950;5.346;2022-09-16T14:46:39;1.38;;;0.40;;
33902;SDS011;20194;50.950;5.346;2022-09-16T14:49:09;1.23;;;0.30;;
33902;SDS011;20194;50.950;5.346;2022-09-16T14:51:37;2.33;;;0.55;;
33902;SDS011;20194;50.950;5.346;2022-09-16T14:54:14;2.63;;;0.52;;
33902;SDS011;20194;50.950;5.346;2022-09-16T14:56:41;3.53;;;0.60;;
33902;SDS011;20194;50.950;5.346;2022-09-16T14:59:08;1.15;;;0.52;;
33902;SDS011;20194;50.950;5.346;2022-09-16T15:01:36;6.75;;;0.70;;
33902;SDS011;20194;50.950;5.346;2022-09-16T15:04:04;6.30;;;0.80;;
33902;SDS011;20194;50.950;5.346;2022-09-16T15:06:40;3.83;;;0.80;;
33902;SDS011;20194;50.950;5.346;2022-09-16T15:09:23;7.90;;;1.05;;
33902;SDS011;20194;50.950;5.346;2022-09-16T15:11:55;6.80;;;1.35;;
33902;SDS011;20194;50.950;5.346;2022-09-16T15:14:23;6.45;;;0.80;;
33902;SDS011;20194;50.950;5.346;2022-09-16T15:16:52;4.13;;;0.90;;
33902;SDS011;20194;50.950;5.346;2022-09-16T15:19:33;5.85;;;1.40;;
33902;SDS011;20194;50.950;5.346;2022-09-16T15:22:01;1.67;;;0.68;;
33902;SDS011;20194;50.950;5.346;2022-09-16T15:24:28;2.25;;;0.77;;
33902;SDS011;20194;50.950;5.346;2022-09-16T15:26:56;4.50;;;0.77;;
33902;SDS011;20194;50.950;5.346;2022-09-16T15:31:49;2.05;;;0.65;;
33902;SDS011;20194;50.950;5.346;2022-09-16T15:36:48;3.17;;;0.75;;
33902;SDS011;20194;50.950;5.346;2022-09-16T15:39:35;3.88;;;1.10;;
33902;SDS011;20194;50.950;5.346;2022-09-16T15:42:12;2.50;;;0.55;;
33902;SDS011;20194;50.950;5.346;2022-09-16T15:44:51;2.45;;;0.68;;
33902;SDS011;20194;50.950;5.346;2022-09-16T15:47:28;6.68;;;0.82;;
33902;SDS011;20194;50.950;5.346;2022-09-16T15:50:06;2.85;;;0.80;;
33902;SDS011;20194;50.950;5.346;2022-09-16T16:00:58;3.03;;;1.00;;
33902;SDS011;20194;50.950;5.346;2022-09-16T16:03:28;5.85;;;1.63;;
33902;SDS011;20194;50.950;5.346;2022-09-16T16:06:01;6.72;;;2.03;;
33902;SDS011;20194;50.950;5.346;2022-09-16T16:11:10;7.13;;;2.05;;
33902;SDS011;20194;50.950;5.346;2022-09-16T16:13:38;6.32;;;1.60;;
33902;SDS011;20194;50.950;5.346;2022-09-16T16:16:04;6.32;;;1.30;;
33902;SDS011;20194;50.950;5.346;2022-09-16T16:18:30;7.20;;;1.60;;
33902;SDS011;20194;50.950;5.346;2022-09-16T16:21:03;3.83;;;1.20;;
33902;SDS011;20194;50.950;5.346;2022-09-16T16:23:30;2.72;;;1.38;;
33902;SDS011;20194;50.950;5.346;2022-09-16T16:25:57;3.88;;;1.63;;
33902;SDS011;20194;50.950;5.346;2022-09-16T16:28:23;5.70;;;1.60;;
33902;SDS011;20194;50.950;5.346;2022-09-16T16:30:49;3.90;;;1.50;;
33902;SDS011;20194;50.950;5.346;2022-09-16T16:33:15;2.00;;;1.40;;
33902;SDS011;20194;50.950;5.346;2022-09-16T16:35:40;6.15;;;1.35;;
33902;SDS011;20194;50.950;5.346;2022-09-16T16:38:06;3.92;;;1.00;;
33902;SDS011;20194;50.950;5.346;2022-09-16T16:40:32;7.05;;;1.00;;
33902;SDS011;20194;50.950;5.346;2022-09-16T16:42:57;6.95;;;2.05;;
33902;SDS011;20194;50.950;5.346;2022-09-16T16:45:23;2.75;;;0.65;;
33902;SDS011;20194;50.950;5.346;2022-09-16T16:47:48;7.18;;;1.17;;
33902;SDS011;20194;50.950;5.346;2022-09-16T16:50:14;5.05;;;1.40;;
33902;SDS011;20194;50.950;5.346;2022-09-16T16:52:40;7.10;;;1.90;;
33902;SDS011;20194;50.950;5.346;2022-09-16T16:55:05;7.30;;;2.45;;
33902;SDS011;20194;50.950;5.346;2022-09-16T16:57:31;6.00;;;1.55;;
33902;SDS011;20194;50.950;5.346;2022-09-16T16:59:57;8.85;;;1.02;;
33902;SDS011;20194;50.950;5.346;2022-09-16T17:02:23;2.33;;;1.20;;
33902;SDS011;20194;50.950;5.346;2022-09-16T17:04:48;6.50;;;1.63;;
33902;SDS011;20194;50.950;5.346;2022-09-16T17:07:15;4.43;;;1.00;;
33902;SDS011;20194;50.950;5.346;2022-09-16T17:09:41;5.35;;;1.10;;
33902;SDS011;20194;50.950;5.346;2022-09-16T17:12:06;3.55;;;1.15;;
33902;SDS011;20194;50.950;5.346;2022-09-16T17:14:33;4.68;;;1.25;;
33902;SDS011;20194;50.950;5.346;2022-09-16T17:16:59;5.22;;;1.48;;
33902;SDS011;20194;50.950;5.346;2022-09-16T17:19:26;2.75;;;1.02;;
33902;SDS011;20194;50.950;5.346;2022-09-16T17:21:53;2.92;;;1.05;;
33902;SDS011;20194;50.950;5.346;2022-09-16T17:24:20;5.07;;;1.05;;
33902;SDS011;20194;50.950;5.346;2022-09-16T17:26:46;1.40;;;0.90;;
33902;SDS011;20194;50.950;5.346;2022-09-16T17:29:12;8.45;;;1.02;;
33902;SDS011;20194;50.950;5.346;2022-09-16T17:31:39;7.47;;;1.13;;
33902;SDS011;20194;50.950;5.346;2022-09-16T17:34:06;5.20;;;1.10;;
33902;SDS011;20194;50.950;5.346;2022-09-16T17:36:38;3.17;;;0.75;;
33902;SDS011;20194;50.950;5.346;2022-09-16T17:39:09;7.80;;;0.97;;
33902;SDS011;20194;50.950;5.346;2022-09-16T17:41:37;3.92;;;0.75;;
33902;SDS011;20194;50.950;5.346;2022-09-16T17:44:04;5.90;;;1.20;;
33902;SDS011;20194;50.950;5.346;2022-09-16T17:46:31;9.13;;;1.27;;
33902;SDS011;20194;50.950;5.346;2022-09-16T17:49:02;7.05;;;1.30;;
33902;SDS011;20194;50.950;5.346;2022-09-16T17:51:29;4.70;;;1.20;;
33902;SDS011;20194;50.950;5.346;2022-09-16T17:53:56;11.38;;;1.40;;
33902;SDS011;20194;50.950;5.346;2022-09-16T17:56:22;13.93;;;1.98;;
33902;SDS011;20194;50.950;5.346;2022-09-16T17:58:49;6.88;;;1.17;;
33902;SDS011;20194;50.950;5.346;2022-09-16T18:01:17;7.10;;;1.15;;
33902;SDS011;20194;50.950;5.346;2022-09-16T18:03:46;8.10;;;1.60;;
33902;SDS011;20194;50.950;5.346;2022-09-16T18:06:18;7.53;;;1.25;;
33902;SDS011;20194;50.950;5.346;2022-09-16T18:08:46;7.30;;;1.70;;
33902;SDS011;20194;50.950;5.346;2022-09-16T18:11:13;5.75;;;1.23;;
33902;SDS011;20194;50.950;5.346;2022-09-16T18:13:40;4.82;;;1.05;;
33902;SDS011;20194;50.950;5.346;2022-09-16T18:18:33;3.97;;;1.15;;
33902;SDS011;20194;50.950;5.346;2022-09-16T18:21:00;6.78;;;1.83;;
33902;SDS011;20194;50.950;5.346;2022-09-16T18:23:27;6.53;;;1.27;;
33902;SDS011;20194;50.950;5.346;2022-09-16T18:25:53;7.47;;;1.27;;
33902;SDS011;20194;50.950;5.346;2022-09-16T18:28:20;6.97;;;1.35;;
33902;SDS011;20194;50.950;5.346;2022-09-16T18:30:48;10.48;;;1.48;;
33902;SDS011;20194;50.950;5.346;2022-09-16T18:33:25;7.57;;;1.50;;
33902;SDS011;20194;50.950;5.346;2022-09-16T18:35:50;6.03;;;1.17;;
33902;SDS011;20194;50.950;5.346;2022-09-16T18:38:22;6.60;;;1.15;;
33902;SDS011;20194;50.950;5.346;2022-09-16T18:40:48;2.58;;;0.80;;
33902;SDS011;20194;50.950;5.346;2022-09-16T18:43:14;4.43;;;1.10;;
33902;SDS011;20194;50.950;5.346;2022-09-16T18:45:39;8.00;;;1.60;;